Time;durP1;ratioP1;P1;durP2;ratioP2;P2;SDS_P1;SDS_P2;PMS_P1;PMS_P2;Temp;Humidity;BMP_temperature;BMP_pressure;BME280_temperature;BME280_humidity;BME280_pressure;Samples;Min_cycle;Max_cycle;Signal;HPM_P1;HPM_P2
2021/12/24 00:00:44;;;;;;;51.33;24.20;;;;;;;;;;5077348;28;20417;-67
2021/12/24 00:03:12;;;;;;;42.95;22.55;;;;;;;;;;5076065;28;20020;-67
2021/12/24 00:05:39;;;;;;;41.72;21.88;;;;;;;;;;5076147;28;20027;-67
2021/12/24 00:08:07;;;;;;;45.10;22.02;;;;;;;;;;5076271;28;20082;-66
2021/12/24 00:10:35;;;;;;;38.03;20.30;;;;;;;;;;5075837;28;20024;-67
2021/12/24 00:13:09;;;;;;;32.97;20.38;;;;;;;;;;5077099;28;20048;-67
2021/12/24 00:15:54;;;;;;;29.15;18.10;;;;;;;;;;5075836;28;20081;-66
2021/12/24 00:18:37;;;;;;;34.28;19.95;;;;;;;;;;5076933;28;20017;-67
2021/12/24 00:35:13;;;;;;;33.60;20.20;;;;;;;;;;5076807;28;20039;-67
2021/12/24 00:37:41;;;;;;;42.85;24.92;;;;;;;;;;5076634;28;20028;-67
2021/12/24 00:40:17;;;;;;;40.45;22.83;;;;;;;;;;5076469;28;20417;-67
2021/12/24 00:42:46;;;;;;;39.83;22.95;;;;;;;;;;5076643;28;20052;-67
2021/12/24 00:45:15;;;;;;;44.78;26.48;;;;;;;;;;5076686;28;20021;-68
2021/12/24 00:47:43;;;;;;;43.53;26.17;;;;;;;;;;5075466;28;20025;-67
2021/12/24 00:50:14;;;;;;;42.08;23.83;;;;;;;;;;5076395;28;20033;-67
2021/12/24 00:52:49;;;;;;;42.80;25.52;;;;;;;;;;5076444;28;20024;-67
2021/12/24 00:55:21;;;;;;;45.60;26.83;;;;;;;;;;5076404;28;20051;-68
2021/12/24 00:57:53;;;;;;;46.10;25.90;;;;;;;;;;5076274;28;20025;-67
2021/12/24 01:00:22;;;;;;;46.88;27.60;;;;;;;;;;5076233;28;20028;-67
2021/12/24 01:02:50;;;;;;;39.72;24.60;;;;;;;;;;5075128;28;20321;-67
2021/12/24 01:05:19;;;;;;;44.00;25.50;;;;;;;;;;5076267;28;20017;-68
2021/12/24 01:07:49;;;;;;;47.88;27.40;;;;;;;;;;5075016;28;20048;-67
2021/12/24 01:10:19;;;;;;;48.83;27.35;;;;;;;;;;5075974;28;20017;-68
2021/12/24 01:12:46;;;;;;;45.92;27.88;;;;;;;;;;5076119;28;20024;-68
2021/12/24 01:15:15;;;;;;;39.38;22.77;;;;;;;;;;5076157;28;20108;-67
2021/12/24 01:20:24;;;;;;;38.60;21.98;;;;;;;;;;5075923;28;20056;-67
2021/12/24 01:25:38;;;;;;;41.22;21.70;;;;;;;;;;5075850;28;20360;-66
2021/12/24 01:44:48;;;;;;;39.75;20.77;;;;;;;;;;5053829;28;20098;-65
2021/12/24 01:47:16;;;;;;;44.13;24.25;;;;;;;;;;5053918;28;20036;-64
2021/12/24 01:49:43;;;;;;;44.20;24.50;;;;;;;;;;5053861;28;20029;-66
2021/12/24 01:52:14;;;;;;;38.63;22.13;;;;;;;;;;5053743;28;20028;-67
2021/12/24 01:54:43;;;;;;;42.42;23.98;;;;;;;;;;5053796;28;20029;-67
2021/12/24 01:57:12;;;;;;;48.78;27.30;;;;;;;;;;5053812;28;20034;-67
2021/12/24 01:59:40;;;;;;;53.75;29.60;;;;;;;;;;5051644;28;20430;-67
2021/12/24 02:02:09;;;;;;;42.20;25.13;;;;;;;;;;5053346;28;20039;-67
2021/12/24 02:04:39;;;;;;;45.22;25.02;;;;;;;;;;5053346;28;20044;-67
2021/12/24 02:07:06;;;;;;;48.47;26.50;;;;;;;;;;5052911;28;20059;-67
2021/12/24 02:09:37;;;;;;;49.08;27.52;;;;;;;;;;5053022;28;20092;-69
2021/12/24 02:12:06;;;;;;;45.40;26.02;;;;;;;;;;5053052;28;20041;-69
2021/12/24 02:14:37;;;;;;;43.70;23.08;;;;;;;;;;5054884;28;20087;-69
2021/12/24 02:28:28;;;;;;;53.70;27.33;;;;;;;;;;5075153;28;20446;-70
2021/12/24 02:30:55;;;;;;;49.83;27.00;;;;;;;;;;5076858;28;20440;-69
2021/12/24 02:33:23;;;;;;;76.07;45.72;;;;;;;;;;5078874;28;20071;-69
2021/12/24 02:35:50;;;;;;;70.45;41.45;;;;;;;;;;5078283;28;20020;-68
2021/12/24 02:38:19;;;;;;;99.90;58.28;;;;;;;;;;5077147;28;20119;-66
2021/12/24 02:40:49;;;;;;;62.03;33.20;;;;;;;;;;5074688;28;20047;-67
2021/12/24 02:43:20;;;;;;;51.33;28.08;;;;;;;;;;5078296;28;20321;-67
2021/12/24 02:45:50;;;;;;;47.72;24.33;;;;;;;;;;5066851;28;20021;-64
2021/12/24 02:53:57;;;;;;;48.38;24.65;;;;;;;;;;5058537;28;20040;-67
2021/12/24 02:56:54;;;;;;;48.88;25.08;;;;;;;;;;5083949;28;20032;-68
2021/12/24 02:59:26;;;;;;;48.67;26.33;;;;;;;;;;5087905;28;20158;-68
2021/12/24 03:01:54;;;;;;;55.42;30.60;;;;;;;;;;5087597;28;20029;-68
2021/12/24 03:04:22;;;;;;;60.53;35.53;;;;;;;;;;5066072;28;20060;-70
2021/12/24 03:06:51;;;;;;;75.57;51.85;;;;;;;;;;5058064;28;20092;-68
2021/12/24 03:09:19;;;;;;;56.40;31.13;;;;;;;;;;5058014;28;20041;-69
2021/12/24 03:11:52;;;;;;;53.13;27.33;;;;;;;;;;5057834;28;20021;-69
2021/12/24 03:14:20;;;;;;;138.95;65.45;;;;;;;;;;5066610;28;20177;-74
2021/12/24 03:16:54;;;;;;;150.63;71.68;;;;;;;;;;5096917;28;20043;-70
2021/12/24 03:19:25;;;;;;;88.20;50.83;;;;;;;;;;5096962;28;20063;-70
2021/12/24 03:21:59;;;;;;;183.60;96.45;;;;;;;;;;5098122;28;20095;-69
2021/12/24 03:26:56;;;;;;;154.70;87.80;;;;;;;;;;5097862;28;20085;-67
2021/12/24 03:29:24;;;;;;;105.03;60.42;;;;;;;;;;5097828;28;20419;-72
2021/12/24 03:31:51;;;;;;;51.60;28.70;;;;;;;;;;5097752;28;20016;-70
2021/12/24 03:34:20;;;;;;;66.78;43.35;;;;;;;;;;5080655;28;20025;-70
2021/12/24 03:36:48;;;;;;;58.95;36.15;;;;;;;;;;5077069;28;20428;-72
2021/12/24 03:39:16;;;;;;;57.55;29.35;;;;;;;;;;5074388;28;20037;-69
2021/12/24 03:41:44;;;;;;;48.90;24.23;;;;;;;;;;5057365;28;20029;-73
2021/12/24 03:44:13;;;;;;;52.25;25.58;;;;;;;;;;5057200;28;20029;-70
2021/12/24 03:46:59;;;;;;;49.63;24.38;;;;;;;;;;5056144;28;20111;-68
2021/12/24 03:49:37;;;;;;;48.58;23.42;;;;;;;;;;5075107;28;20035;-75
2021/12/24 03:52:33;;;;;;;56.65;29.42;;;;;;;;;;5083265;28;20081;-74
2021/12/24 03:55:01;;;;;;;53.33;28.30;;;;;;;;;;5095158;28;20450;-74
2021/12/24 03:57:32;;;;;;;51.17;25.70;;;;;;;;;;5095318;28;20099;-69
2021/12/24 04:00:02;;;;;;;46.20;23.48;;;;;;;;;;5094746;28;20035;-69
2021/12/24 04:02:29;;;;;;;51.75;26.27;;;;;;;;;;5095097;28;20087;-71
2021/12/24 04:04:57;;;;;;;56.85;30.60;;;;;;;;;;5078213;28;20024;-68
2021/12/24 04:07:25;;;;;;;51.55;24.95;;;;;;;;;;5095112;28;20478;-69
2021/12/24 04:10:01;;;;;;;46.85;24.20;;;;;;;;;;5071204;28;20044;-71
2021/12/24 04:12:29;;;;;;;50.20;25.00;;;;;;;;;;5094567;28;20019;-70
2021/12/24 04:14:57;;;;;;;43.50;21.85;;;;;;;;;;5074613;28;20058;-72
2021/12/24 04:17:24;;;;;;;42.53;22.75;;;;;;;;;;5057868;28;20079;-75
2021/12/24 04:25:25;;;;;;;36.25;19.30;;;;;;;;;;5074749;28;20047;-70
2021/12/24 04:27:54;;;;;;;37.72;19.45;;;;;;;;;;5086535;28;20026;-73
2021/12/24 04:30:26;;;;;;;35.80;17.52;;;;;;;;;;5094672;28;20024;-69
2021/12/24 04:33:31;;;;;;;34.88;16.75;;;;;;;;;;5085977;28;20036;-71
2021/12/24 04:36:00;;;;;;;44.15;19.92;;;;;;;;;;5074873;28;20413;-71
2021/12/24 04:38:37;;;;;;;46.05;22.13;;;;;;;;;;5076329;28;20016;-70
2021/12/24 04:52:49;;;;;;;142.10;59.10;;;;;;;;;;5077349;28;20031;-75
2021/12/24 05:03:27;;;;;;;179.95;74.35;;;;;;;;;;5071866;28;20036;-72
2021/12/24 05:06:29;;;;;;;150.75;65.28;;;;;;;;;;5054584;28;20032;-67
2021/12/24 05:08:50;;;;;;;225.82;66.10;;;;;;;;;;5053983;28;20073;-67
2021/12/24 05:11:19;;;;;;;183.32;73.90;;;;;;;;;;5054395;28;20331;-67
2021/12/24 05:13:47;;;;;;;189.60;73.20;;;;;;;;;;5054379;28;20039;-68
2021/12/24 05:16:27;;;;;;;156.95;64.85;;;;;;;;;;5054760;28;20369;-66
2021/12/24 05:21:44;;;;;;;176.73;69.13;;;;;;;;;;5054488;28;20040;-67
2021/12/24 05:24:22;;;;;;;180.32;71.35;;;;;;;;;;5053908;28;20053;-67
2021/12/24 05:26:58;;;;;;;182.43;71.70;;;;;;;;;;5055427;28;20036;-67
2021/12/24 05:29:26;;;;;;;229.38;89.72;;;;;;;;;;5074157;28;20040;-67
2021/12/24 05:31:54;;;;;;;204.63;77.22;;;;;;;;;;5074321;28;20032;-67
2021/12/24 05:34:22;;;;;;;247.88;96.22;;;;;;;;;;5074673;28;20460;-68
2021/12/24 05:36:53;;;;;;;237.85;91.32;;;;;;;;;;5057594;28;20076;-68
2021/12/24 05:39:22;;;;;;;187.45;74.40;;;;;;;;;;5057275;28;20421;-67
2021/12/24 05:41:50;;;;;;;176.85;71.28;;;;;;;;;;5074010;28;20444;-67
2021/12/24 05:44:18;;;;;;;180.32;69.65;;;;;;;;;;5074398;28;20024;-67
2021/12/24 05:46:45;;;;;;;189.75;73.68;;;;;;;;;;5074128;28;20067;-67
2021/12/24 05:49:14;;;;;;;145.05;61.33;;;;;;;;;;5074219;28;20052;-67
2021/12/24 05:51:41;;;;;;;157.25;65.63;;;;;;;;;;5056188;28;20021;-68
2021/12/24 05:54:11;;;;;;;154.02;63.35;;;;;;;;;;5073264;28;20040;-68
2021/12/24 05:56:39;;;;;;;143.63;64.78;;;;;;;;;;5073252;28;20028;-68
2021/12/24 05:59:06;;;;;;;140.00;71.93;;;;;;;;;;5073207;28;20112;-67
2021/12/24 06:01:34;;;;;;;109.13;52.78;;;;;;;;;;5056442;28;20087;-67
2021/12/24 06:04:02;;;;;;;102.07;46.45;;;;;;;;;;5073183;28;20329;-66
2021/12/24 06:06:29;;;;;;;111.22;51.03;;;;;;;;;;5076012;28;20338;-67
2021/12/24 06:08:57;;;;;;;91.60;41.58;;;;;;;;;;5077183;28;20032;-67
2021/12/24 06:11:24;;;;;;;91.57;41.15;;;;;;;;;;5077137;28;20333;-67
2021/12/24 06:13:55;;;;;;;100.57;45.30;;;;;;;;;;5077231;28;20426;-68
2021/12/24 06:16:23;;;;;;;82.00;40.40;;;;;;;;;;5076074;28;20143;-68
2021/12/24 06:18:50;;;;;;;79.28;36.63;;;;;;;;;;5093875;28;20440;-68
2021/12/24 06:21:18;;;;;;;77.13;37.78;;;;;;;;;;5077686;28;20150;-68
2021/12/24 06:23:47;;;;;;;82.45;36.88;;;;;;;;;;5077326;28;20060;-68
2021/12/24 06:26:13;;;;;;;61.78;32.17;;;;;;;;;;5079169;28;20024;-68
2021/12/24 06:28:41;;;;;;;64.90;33.88;;;;;;;;;;5078764;28;20027;-68
2021/12/24 06:31:09;;;;;;;72.45;36.25;;;;;;;;;;5077333;28;20368;-68
2021/12/24 06:33:36;;;;;;;76.85;37.97;;;;;;;;;;5078750;28;20306;-67
2021/12/24 06:36:05;;;;;;;73.47;36.85;;;;;;;;;;5077529;28;20029;-68
2021/12/24 06:38:33;;;;;;;76.65;38.95;;;;;;;;;;5078554;28;20051;-69
2021/12/24 06:41:01;;;;;;;74.35;38.13;;;;;;;;;;5077592;28;20437;-68
2021/12/24 06:43:29;;;;;;;71.25;36.22;;;;;;;;;;5079026;28;20329;-67
2021/12/24 06:45:57;;;;;;;81.10;39.67;;;;;;;;;;5078570;28;20087;-68
2021/12/24 06:48:24;;;;;;;87.35;43.47;;;;;;;;;;5077320;28;20024;-68
2021/12/24 06:50:52;;;;;;;85.90;44.00;;;;;;;;;;5078188;28;20020;-68
2021/12/24 06:53:19;;;;;;;77.15;38.88;;;;;;;;;;5078174;28;20029;-68
2021/12/24 06:55:47;;;;;;;88.38;44.72;;;;;;;;;;5078330;28;20074;-68
2021/12/24 06:58:14;;;;;;;86.22;43.00;;;;;;;;;;5076869;28;20048;-70
2021/12/24 07:00:42;;;;;;;85.57;42.30;;;;;;;;;;5077856;28;20056;-68
2021/12/24 07:03:09;;;;;;;96.15;44.15;;;;;;;;;;5077016;28;20119;-68
2021/12/24 07:05:37;;;;;;;109.90;52.38;;;;;;;;;;5078021;28;20024;-70
2021/12/24 07:08:05;;;;;;;96.20;48.33;;;;;;;;;;5077877;28;20021;-70
2021/12/24 07:10:33;;;;;;;85.07;41.60;;;;;;;;;;5078080;28;20029;-70
2021/12/24 07:13:00;;;;;;;93.70;45.20;;;;;;;;;;5076787;28;20158;-68
2021/12/24 07:15:28;;;;;;;105.38;50.65;;;;;;;;;;5076926;28;20082;-69
2021/12/24 07:17:55;;;;;;;75.32;37.38;;;;;;;;;;5059864;28;20082;-69
2021/12/24 07:20:23;;;;;;;73.10;37.78;;;;;;;;;;5057452;28;20040;-69
2021/12/24 07:22:49;;;;;;;74.93;36.95;;;;;;;;;;5057218;28;20119;-69
2021/12/24 07:25:16;;;;;;;74.00;35.45;;;;;;;;;;5056531;28;20429;-69
2021/12/24 07:27:44;;;;;;;72.88;36.35;;;;;;;;;;5057512;28;20028;-68
2021/12/24 07:30:12;;;;;;;72.00;36.05;;;;;;;;;;5057464;28;20035;-69
2021/12/24 07:32:41;;;;;;;75.28;36.13;;;;;;;;;;5056518;28;20498;-70
2021/12/24 07:35:08;;;;;;;65.10;31.13;;;;;;;;;;5057410;28;20021;-69
2021/12/24 07:37:36;;;;;;;156.27;68.22;;;;;;;;;;5056094;28;20067;-69
2021/12/24 07:40:04;;;;;;;83.93;42.50;;;;;;;;;;5055975;28;20329;-69
2021/12/24 07:42:32;;;;;;;72.57;40.30;;;;;;;;;;5056071;28;20031;-70
2021/12/24 07:45:00;;;;;;;71.18;38.97;;;;;;;;;;5057143;28;20052;-70
2021/12/24 07:47:31;;;;;;;83.25;44.63;;;;;;;;;;5057180;28;20021;-70
2021/12/24 07:50:14;;;;;;;63.72;34.33;;;;;;;;;;5057029;28;20060;-69
2021/12/24 07:52:43;;;;;;;54.08;29.08;;;;;;;;;;5057064;28;20029;-70
2021/12/24 07:55:11;;;;;;;56.67;30.45;;;;;;;;;;5055776;28;20437;-70
2021/12/24 07:57:39;;;;;;;52.95;27.42;;;;;;;;;;5055831;28;20067;-69
2021/12/24 08:00:08;;;;;;;73.30;38.00;;;;;;;;;;5056637;28;20075;-69
2021/12/24 08:02:35;;;;;;;71.30;35.78;;;;;;;;;;5060724;28;20082;-72
2021/12/24 08:05:03;;;;;;;62.00;33.72;;;;;;;;;;5074633;28;20414;-71
2021/12/24 08:07:31;;;;;;;72.75;38.28;;;;;;;;;;5076482;28;20413;-71
2021/12/24 08:09:58;;;;;;;86.13;41.38;;;;;;;;;;5056210;28;20017;-72
2021/12/24 08:12:26;;;;;;;89.95;41.60;;;;;;;;;;5059770;28;20028;-72
2021/12/24 08:14:53;;;;;;;75.57;38.75;;;;;;;;;;5056486;28;20021;-72
2021/12/24 08:17:21;;;;;;;76.63;37.70;;;;;;;;;;5056630;28;20438;-71
2021/12/24 08:19:49;;;;;;;82.75;40.75;;;;;;;;;;5057729;28;20033;-72
2021/12/24 08:22:15;;;;;;;102.40;48.80;;;;;;;;;;5076150;28;20032;-70
2021/12/24 08:24:42;;;;;;;119.55;53.90;;;;;;;;;;5075213;28;20030;-72
2021/12/24 08:27:10;;;;;;;124.32;54.75;;;;;;;;;;5076485;28;20048;-70
2021/12/24 08:29:38;;;;;;;138.50;58.97;;;;;;;;;;5075408;28;20023;-71
2021/12/24 08:32:06;;;;;;;142.35;58.38;;;;;;;;;;5075226;28;20024;-70
2021/12/24 08:34:34;;;;;;;139.77;58.53;;;;;;;;;;5075454;28;20336;-74
2021/12/24 08:37:01;;;;;;;157.27;65.72;;;;;;;;;;5076398;28;20100;-75
2021/12/24 08:39:29;;;;;;;209.07;83.70;;;;;;;;;;5076182;28;20025;-75
2021/12/24 08:41:57;;;;;;;171.65;68.65;;;;;;;;;;5075685;28;20024;-75
2021/12/24 08:44:26;;;;;;;133.55;56.78;;;;;;;;;;5074970;28;20086;-69
2021/12/24 08:46:54;;;;;;;139.85;59.45;;;;;;;;;;5072523;28;20313;-73
2021/12/24 08:49:23;;;;;;;146.75;69.07;;;;;;;;;;5077395;28;20048;-74
2021/12/24 08:51:51;;;;;;;151.07;69.05;;;;;;;;;;5075679;28;20078;-75
2021/12/24 08:54:24;;;;;;;140.88;59.75;;;;;;;;;;5076244;28;20033;-73
2021/12/24 08:56:52;;;;;;;144.02;60.50;;;;;;;;;;5076190;28;20020;-77
2021/12/24 08:59:20;;;;;;;151.50;60.90;;;;;;;;;;5076149;28;20025;-75
2021/12/24 09:01:48;;;;;;;142.13;57.08;;;;;;;;;;5076016;28;20067;-74
2021/12/24 09:04:15;;;;;;;142.02;56.97;;;;;;;;;;5075792;28;20028;-77
2021/12/24 09:06:43;;;;;;;153.07;58.75;;;;;;;;;;5076011;28;20020;-76
2021/12/24 09:09:11;;;;;;;140.90;53.95;;;;;;;;;;5075956;28;20020;-74
2021/12/24 09:11:39;;;;;;;144.60;56.78;;;;;;;;;;5075984;28;20093;-70
2021/12/24 09:14:07;;;;;;;160.00;57.50;;;;;;;;;;5075517;28;20060;-72
2021/12/24 09:16:35;;;;;;;148.98;57.17;;;;;;;;;;5074940;28;20021;-73
2021/12/24 09:19:12;;;;;;;168.63;65.50;;;;;;;;;;5074913;28;20025;-71
2021/12/24 09:21:40;;;;;;;175.75;67.53;;;;;;;;;;5078124;28;20031;-69
2021/12/24 09:24:08;;;;;;;192.82;68.18;;;;;;;;;;5075888;28;20437;-72
2021/12/24 09:26:36;;;;;;;210.02;79.85;;;;;;;;;;5076543;28;20036;-78
2021/12/24 09:29:05;;;;;;;212.48;79.68;;;;;;;;;;5076927;28;20017;-77
2021/12/24 09:31:33;;;;;;;203.63;73.25;;;;;;;;;;5076967;28;20020;-74
2021/12/24 09:34:00;;;;;;;216.65;76.55;;;;;;;;;;5074730;28;20029;-76
2021/12/24 09:36:29;;;;;;;182.27;66.35;;;;;;;;;;5075965;28;20024;-71
2021/12/24 09:38:58;;;;;;;216.13;81.07;;;;;;;;;;5076277;28;20032;-72
2021/12/24 09:41:46;;;;;;;232.85;87.68;;;;;;;;;;5079367;28;20463;-72
2021/12/24 09:44:16;;;;;;;200.50;71.07;;;;;;;;;;5079150;28;20417;-73
2021/12/24 09:46:44;;;;;;;227.48;84.38;;;;;;;;;;5077734;28;20105;-70
2021/12/24 09:49:13;;;;;;;221.43;76.10;;;;;;;;;;5079835;28;20154;-73
2021/12/24 09:51:50;;;;;;;255.10;87.80;;;;;;;;;;5081918;28;20020;-71
2021/12/24 09:54:20;;;;;;;238.40;82.40;;;;;;;;;;5080021;28;20333;-71
2021/12/24 09:56:48;;;;;;;262.05;93.10;;;;;;;;;;5080424;28;20035;-71
2021/12/24 09:59:15;;;;;;;256.50;89.57;;;;;;;;;;5078423;28;20028;-73
2021/12/24 10:01:46;;;;;;;296.25;107.32;;;;;;;;;;5077283;28;20035;-72
2021/12/24 10:04:20;;;;;;;246.50;89.80;;;;;;;;;;5079332;28;20026;-74
2021/12/24 10:06:59;;;;;;;246.55;85.30;;;;;;;;;;5058951;28;20017;-73
2021/12/24 10:09:33;;;;;;;244.32;83.88;;;;;;;;;;5058925;28;20099;-75
2021/12/24 10:12:05;;;;;;;268.75;93.03;;;;;;;;;;5057024;28;20021;-74
2021/12/24 10:14:36;;;;;;;287.75;106.00;;;;;;;;;;5059332;28;20056;-74
2021/12/24 10:17:05;;;;;;;291.90;109.18;;;;;;;;;;5059694;28;20100;-72
2021/12/24 10:19:49;;;;;;;280.02;101.15;;;;;;;;;;5058330;28;20025;-72
2021/12/24 10:22:16;;;;;;;355.92;125.10;;;;;;;;;;5058171;28;20338;-73
2021/12/24 10:24:57;;;;;;;480.88;177.45;;;;;;;;;;5059623;28;20031;-73
2021/12/24 10:27:28;;;;;;;419.65;148.75;;;;;;;;;;5058708;28;20024;-76
2021/12/24 10:29:56;;;;;;;323.15;119.93;;;;;;;;;;5060732;28;20096;-75
2021/12/24 10:32:23;;;;;;;410.40;152.57;;;;;;;;;;5059235;28;20053;-73
2021/12/24 10:34:51;;;;;;;382.85;147.52;;;;;;;;;;5060378;28;20035;-72
2021/12/24 10:37:26;;;;;;;442.05;169.05;;;;;;;;;;5058364;28;20021;-72
2021/12/24 10:40:00;;;;;;;286.73;101.20;;;;;;;;;;5057472;28;20454;-72
2021/12/24 10:42:37;;;;;;;267.63;98.95;;;;;;;;;;5058423;28;20322;-74
2021/12/24 10:45:06;;;;;;;257.65;99.38;;;;;;;;;;5057229;28;20029;-74
2021/12/24 10:47:37;;;;;;;266.50;101.38;;;;;;;;;;5057651;28;20048;-70
2021/12/24 10:55:23;;;;;;;298.23;119.80;;;;;;;;;;5058716;28;20303;-73
2021/12/24 10:57:52;;;;;;;247.68;97.05;;;;;;;;;;5057560;28;20116;-75
2021/12/24 11:00:24;;;;;;;275.38;112.25;;;;;;;;;;5058315;28;20017;-68
2021/12/24 11:02:54;;;;;;;257.15;104.13;;;;;;;;;;5058485;28;20112;-67
2021/12/24 11:05:32;;;;;;;207.13;77.97;;;;;;;;;;5058311;28;20029;-67
2021/12/24 11:08:00;;;;;;;248.82;104.63;;;;;;;;;;5057990;28;20025;-67
2021/12/24 11:10:30;;;;;;;224.20;88.68;;;;;;;;;;5055710;28;20151;-68
2021/12/24 11:12:59;;;;;;;257.77;107.38;;;;;;;;;;5039324;28;20052;-67
2021/12/24 11:15:39;;;;;;;230.95;96.28;;;;;;;;;;5056219;28;20025;-67
2021/12/24 11:18:12;;;;;;;233.38;94.53;;;;;;;;;;5056114;28;20541;-67
2021/12/24 11:20:40;;;;;;;226.75;88.47;;;;;;;;;;5055943;28;20052;-68
2021/12/24 11:23:13;;;;;;;272.98;116.95;;;;;;;;;;5056485;28;20079;-68
2021/12/24 11:25:40;;;;;;;246.23;98.90;;;;;;;;;;5040145;28;20033;-68
2021/12/24 11:28:08;;;;;;;303.80;115.93;;;;;;;;;;5039614;28;20025;-68
2021/12/24 11:30:41;;;;;;;277.48;109.20;;;;;;;;;;5039294;28;20518;-68
2021/12/24 11:33:13;;;;;;;251.45;105.28;;;;;;;;;;5039321;28;20372;-69
2021/12/24 11:35:41;;;;;;;270.08;110.05;;;;;;;;;;5039098;28;20036;-69
2021/12/24 11:38:08;;;;;;;278.63;107.93;;;;;;;;;;5055732;28;20219;-68
2021/12/24 11:40:36;;;;;;;252.57;98.97;;;;;;;;;;5056155;28;20037;-68
2021/12/24 11:43:04;;;;;;;245.85;97.32;;;;;;;;;;5055880;28;20037;-68
2021/12/24 11:45:33;;;;;;;254.80;98.72;;;;;;;;;;5055466;28;20356;-68
2021/12/24 11:48:02;;;;;;;250.70;94.97;;;;;;;;;;5038830;28;20422;-68
2021/12/24 11:50:30;;;;;;;260.30;99.57;;;;;;;;;;5038829;28;20024;-68
2021/12/24 11:53:01;;;;;;;255.90;97.78;;;;;;;;;;5036253;28;20430;-70
2021/12/24 11:55:32;;;;;;;259.65;96.15;;;;;;;;;;5035729;28;20105;-69
2021/12/24 11:58:03;;;;;;;265.70;95.05;;;;;;;;;;5035302;28;20052;-68
2021/12/24 12:00:32;;;;;;;290.58;102.38;;;;;;;;;;5043437;28;20170;-68
2021/12/24 12:02:59;;;;;;;278.70;103.47;;;;;;;;;;5053300;28;20033;-70
2021/12/24 12:05:32;;;;;;;284.58;100.65;;;;;;;;;;5070776;28;20462;-68
2021/12/24 12:08:18;;;;;;;268.05;91.95;;;;;;;;;;5054440;28;20044;-68
2021/12/24 12:10:53;;;;;;;272.77;102.72;;;;;;;;;;5054598;28;20033;-67
2021/12/24 12:13:38;;;;;;;309.02;112.60;;;;;;;;;;5055838;28;20048;-68
2021/12/24 12:16:08;;;;;;;305.45;112.10;;;;;;;;;;5054927;28;20052;-67
2021/12/24 12:18:49;;;;;;;280.83;103.03;;;;;;;;;;5071365;28;20383;-67
2021/12/24 12:21:42;;;;;;;314.02;115.07;;;;;;;;;;5071144;28;20436;-67
2021/12/24 12:26:47;;;;;;;358.25;129.75;;;;;;;;;;5074049;28;20104;-67
2021/12/24 12:29:32;;;;;;;361.08;128.90;;;;;;;;;;5074133;28;20321;-67
2021/12/24 12:32:26;;;;;;;373.08;134.98;;;;;;;;;;5058589;28;20024;-69
2021/12/24 12:35:02;;;;;;;355.13;131.50;;;;;;;;;;5076619;28;20112;-67
2021/12/24 12:37:49;;;;;;;324.38;116.03;;;;;;;;;;5057872;28;20063;-67
2021/12/24 12:40:18;;;;;;;320.48;115.13;;;;;;;;;;5074204;28;20432;-67
2021/12/24 12:42:56;;;;;;;325.40;112.50;;;;;;;;;;5074124;28;20028;-68
2021/12/24 12:45:44;;;;;;;310.80;106.28;;;;;;;;;;5073733;28;20325;-67
2021/12/24 12:48:13;;;;;;;305.77;105.75;;;;;;;;;;4994340;28;20265;-66
2021/12/24 12:50:50;;;;;;;313.73;105.43;;;;;;;;;;4977643;28;20466;-67
2021/12/24 12:53:29;;;;;;;323.75;102.28;;;;;;;;;;4977797;28;20057;-67
2021/12/24 12:56:16;;;;;;;315.80;101.30;;;;;;;;;;4993797;28;20038;-69
2021/12/24 12:58:48;;;;;;;315.08;103.63;;;;;;;;;;4994591;28;20038;-66
2021/12/24 13:01:21;;;;;;;313.85;95.55;;;;;;;;;;4994634;28;20038;-67
2021/12/24 13:04:06;;;;;;;295.83;92.72;;;;;;;;;;4995200;28;20113;-68
2021/12/24 13:06:41;;;;;;;359.35;119.80;;;;;;;;;;4993992;28;20098;-68
2021/12/24 13:09:16;;;;;;;350.33;122.57;;;;;;;;;;4994065;28;20077;-68
2021/12/24 13:11:45;;;;;;;318.90;112.43;;;;;;;;;;4993999;28;20101;-69
2021/12/24 13:14:14;;;;;;;291.67;96.47;;;;;;;;;;4993466;28;20100;-68
2021/12/24 13:16:54;;;;;;;292.92;92.95;;;;;;;;;;4995764;28;20053;-68
2021/12/24 13:22:33;;;;;;;303.85;88.75;;;;;;;;;;4977703;28;20042;-68
2021/12/24 13:25:13;;;;;;;232.80;74.20;;;;;;;;;;4999448;28;20080;-68
2021/12/24 13:27:51;;;;;;;232.93;78.65;;;;;;;;;;5033231;28;20033;-67
2021/12/24 13:30:25;;;;;;;246.00;78.65;;;;;;;;;;5033509;28;20026;-69
2021/12/24 13:32:54;;;;;;;225.95;79.55;;;;;;;;;;5035025;28;20034;-68
2021/12/24 13:35:27;;;;;;;210.00;72.47;;;;;;;;;;5033744;28;20058;-69
2021/12/24 13:37:55;;;;;;;202.98;72.28;;;;;;;;;;5017152;28;20021;-69
2021/12/24 13:40:25;;;;;;;215.60;83.30;;;;;;;;;;5034243;28;20041;-69
2021/12/24 13:42:56;;;;;;;210.43;80.05;;;;;;;;;;5034130;28;20064;-69
2021/12/24 13:45:25;;;;;;;205.77;82.82;;;;;;;;;;5034649;28;20442;-69
2021/12/24 13:48:03;;;;;;;219.80;86.20;;;;;;;;;;5034599;28;20041;-69
2021/12/24 13:56:51;;;;;;;196.35;74.13;;;;;;;;;;5034818;28;20453;-68
2021/12/24 13:59:23;;;;;;;207.25;85.57;;;;;;;;;;5051212;28;20041;-69
2021/12/24 14:01:51;;;;;;;238.35;104.72;;;;;;;;;;5054496;28;20105;-67
2021/12/24 14:04:20;;;;;;;204.30;86.20;;;;;;;;;;5055639;28;20112;-68
2021/12/24 14:06:50;;;;;;;194.05;78.00;;;;;;;;;;5054357;28;20421;-68
2021/12/24 14:09:25;;;;;;;242.45;100.95;;;;;;;;;;5054704;28;20329;-67
2021/12/24 14:11:54;;;;;;;278.02;116.38;;;;;;;;;;5056609;28;20025;-67
2021/12/24 14:14:49;;;;;;;213.20;89.50;;;;;;;;;;5057055;28;20036;-71
2021/12/24 14:22:29;;;;;;;185.23;66.95;;;;;;;;;;5055001;28;20042;-69
2021/12/24 14:25:08;;;;;;;227.90;80.53;;;;;;;;;;5054000;28;20037;-68
2021/12/24 14:27:37;;;;;;;443.35;167.20;;;;;;;;;;5056918;28;20025;-69
2021/12/24 14:30:12;;;;;;;327.60;121.95;;;;;;;;;;5057864;28;20022;-69
2021/12/24 14:32:41;;;;;;;290.15;105.43;;;;;;;;;;5058956;28;20368;-69
2021/12/24 14:35:18;;;;;;;236.23;88.45;;;;;;;;;;5058748;28;20029;-69
2021/12/24 14:37:57;;;;;;;204.90;75.47;;;;;;;;;;5060314;28;20055;-69
2021/12/24 14:40:26;;;;;;;196.02;67.72;;;;;;;;;;5057412;28;20025;-69
2021/12/24 14:42:54;;;;;;;195.88;65.93;;;;;;;;;;5057346;28;20025;-69
2021/12/24 14:45:34;;;;;;;191.77;77.20;;;;;;;;;;5057832;28;20051;-69
2021/12/24 14:48:17;;;;;;;184.00;65.97;;;;;;;;;;5057809;28;20025;-69
2021/12/24 14:50:52;;;;;;;195.73;68.82;;;;;;;;;;5059453;28;20021;-69
2021/12/24 14:53:37;;;;;;;188.68;67.93;;;;;;;;;;5058983;28;20029;-70
2021/12/24 14:56:10;;;;;;;184.65;67.90;;;;;;;;;;5068472;28;20119;-69
2021/12/24 14:58:46;;;;;;;208.32;71.53;;;;;;;;;;5057771;28;20389;-69
2021/12/24 15:01:20;;;;;;;195.57;73.47;;;;;;;;;;5058373;28;20404;-68
2021/12/24 15:03:57;;;;;;;190.18;68.90;;;;;;;;;;5057539;28;20508;-69
2021/12/24 15:06:31;;;;;;;174.20;61.85;;;;;;;;;;5057883;28;20033;-68
2021/12/24 15:09:04;;;;;;;186.80;67.40;;;;;;;;;;5058167;28;20021;-69
2021/12/24 15:11:36;;;;;;;192.75;72.13;;;;;;;;;;5057636;28;20021;-69
2021/12/24 15:14:06;;;;;;;196.10;74.95;;;;;;;;;;5058544;28;20414;-69
2021/12/24 15:16:35;;;;;;;191.68;71.32;;;;;;;;;;5058271;28;20025;-68
2021/12/24 15:19:04;;;;;;;181.93;71.90;;;;;;;;;;5057746;28;20044;-69
2021/12/24 15:21:33;;;;;;;197.90;74.30;;;;;;;;;;5056092;28;20079;-68
2021/12/24 15:24:00;;;;;;;215.32;80.35;;;;;;;;;;5055785;28;20053;-68
2021/12/24 15:26:27;;;;;;;208.13;80.03;;;;;;;;;;5056125;28;20029;-69
2021/12/24 15:28:56;;;;;;;204.77;77.28;;;;;;;;;;5054786;28;20078;-69
2021/12/24 15:31:25;;;;;;;205.48;76.97;;;;;;;;;;5057921;28;20051;-69
2021/12/24 15:33:53;;;;;;;177.98;66.90;;;;;;;;;;5057170;28;20082;-69
2021/12/24 15:36:21;;;;;;;178.05;59.83;;;;;;;;;;5055219;28;20110;-68
2021/12/24 15:38:49;;;;;;;191.75;62.45;;;;;;;;;;5055299;28;20384;-68
2021/12/24 15:41:17;;;;;;;198.15;68.65;;;;;;;;;;5039300;28;20092;-68
2021/12/24 15:43:45;;;;;;;228.15;80.03;;;;;;;;;;5055426;28;20112;-67
2021/12/24 15:46:12;;;;;;;319.23;114.25;;;;;;;;;;5038811;28;20071;-68
2021/12/24 15:48:40;;;;;;;236.63;82.93;;;;;;;;;;5056007;28;20115;-70
2021/12/24 15:51:08;;;;;;;249.95;93.40;;;;;;;;;;5038168;28;20464;-68
2021/12/24 15:53:37;;;;;;;237.50;88.35;;;;;;;;;;5038578;28;20099;-68
2021/12/24 15:56:07;;;;;;;192.70;73.30;;;;;;;;;;5055668;28;20029;-68
2021/12/24 15:58:39;;;;;;;208.40;74.00;;;;;;;;;;5056436;28;20481;-67
2021/12/24 16:01:08;;;;;;;178.65;68.25;;;;;;;;;;5039232;28;20465;-68
2021/12/24 16:03:36;;;;;;;177.82;64.07;;;;;;;;;;5054351;28;20029;-68
2021/12/24 16:06:04;;;;;;;173.60;62.17;;;;;;;;;;5038326;28;20033;-68
2021/12/24 16:08:35;;;;;;;180.70;64.68;;;;;;;;;;5054876;28;20459;-69
2021/12/24 16:11:04;;;;;;;175.88;68.00;;;;;;;;;;5055452;28;20021;-70
2021/12/24 16:13:32;;;;;;;190.73;67.55;;;;;;;;;;5038342;28;20028;-70